Thunder radar more information blitzortung!


Radar de pluja more information rain snow radar


Visita la nostra xarxa de llocs de meteo:

Template documentation
and downloads

And another site



No particular awareness of the weather is required.    There are no Weather-warnings

Pagina Historial Weather Underground text

Diari Resum Agost 19, 2017 Unitats:  Mètric    Imperial   Tant
« Previous Dia
SegĂźent Dia »
Diari Setmana Mensual Anual Personalitzada
  Maxima: Minima: Media:
Temperatura: 30.0 °C 22.3 °C 24.9 °C
Punt de rosada: 20.2 °C 14.7 °C 18.2 °C
Humitat: 75 % 49 % 67 %
Wind Speed: 20.4 km/h 0.0 km/h 6.3 km/h
RĂ fegues de vent: 20.4 km/h - -
Vent:- - South
Pression baro: 1018.8 hPa 1014.8 hPa -
Precipitacions: 0.0 mm    
Historical Graphs
 
 
Dades de taula per Agost 19, 2017
Temps Temperatura Punt de rosada Pression baro Vent Wind Speed RĂ fegues de vent Humitat Rainfall Rate (Hourly)
00:04 26.3 °C 14.7 °C 1014.8 hPa ENE 9.3 km/h 9.3 km/h 49 % 0.0 mm
00:09 26.3 °C 15.1 °C 1014.8 hPa NNE 11.1 km/h 11.1 km/h 50 % 0.0 mm
00:14 26.2 °C 15.3 °C 1014.8 hPa East 9.3 km/h 9.3 km/h 51 % 0.0 mm
00:19 25.9 °C 16.2 °C 1014.8 hPa ENE 9.3 km/h 9.3 km/h 55 % 0.0 mm
00:24 25.7 °C 16.8 °C 1014.8 hPa NNE 11.1 km/h 11.1 km/h 58 % 0.0 mm
00:29 25.5 °C 17.2 °C 1015.8 hPa ESE 9.3 km/h 9.3 km/h 60 % 0.0 mm
00:34 25.4 °C 17.6 °C 1015.8 hPa NNE 7.4 km/h 7.4 km/h 62 % 0.0 mm
00:39 25.3 °C 18.2 °C 1015.8 hPa NE 7.4 km/h 7.4 km/h 65 % 0.0 mm
00:44 25.2 °C 18.2 °C 1015.8 hPa East 9.3 km/h 9.3 km/h 65 % 0.0 mm
00:49 25.1 °C 18.3 °C 1015.8 hPa NE 5.6 km/h 5.6 km/h 66 % 0.0 mm
00:50 25.1 °C 18.3 °C 1015.8 hPa ESE 6.1 km/h 6.1 km/h 66 % 0.0 mm
00:55 24.9 °C 18.8 °C 1015.8 hPa East 13.0 km/h 13.0 km/h 69 % 0.0 mm
01:00 24.8 °C 18.9 °C 1015.8 hPa East 11.1 km/h 11.1 km/h 70 % 0.0 mm
01:05 24.8 °C 19.2 °C 1015.8 hPa East 7.4 km/h 7.4 km/h 71 % 0.0 mm
01:10 24.7 °C 19.3 °C 1015.8 hPa ESE 7.4 km/h 7.4 km/h 72 % 0.0 mm
01:15 24.7 °C 19.1 °C 1014.8 hPa East 7.4 km/h 7.4 km/h 71 % 0.0 mm
01:20 24.7 °C 19.3 °C 1014.8 hPa NE 3.7 km/h 3.7 km/h 72 % 0.0 mm
01:25 24.6 °C 19.4 °C 1014.8 hPa ESE 9.3 km/h 9.3 km/h 73 % 0.0 mm
01:30 24.6 °C 19.4 °C 1014.8 hPa ESE 7.4 km/h 7.4 km/h 73 % 0.0 mm
01:35 24.6 °C 19.4 °C 1014.8 hPa ENE 7.6 km/h 7.6 km/h 73 % 0.0 mm
01:40 24.6 °C 19.4 °C 1014.8 hPa ENE 5.6 km/h 5.6 km/h 73 % 0.0 mm
01:45 24.6 °C 19.2 °C 1015.8 hPa NNE 7.4 km/h 7.4 km/h 72 % 0.0 mm
01:50 24.6 °C 19.4 °C 1015.8 hPa NE 7.4 km/h 7.4 km/h 73 % 0.0 mm
01:55 24.6 °C 19.7 °C 1015.8 hPa ENE 7.9 km/h 7.9 km/h 74 % 0.0 mm
02:00 24.5 °C 19.3 °C 1015.8 hPa NE 5.8 km/h 5.8 km/h 73 % 0.0 mm
02:05 24.5 °C 19.6 °C 1015.8 hPa ENE 5.6 km/h 5.6 km/h 74 % 0.0 mm
02:06 24.6 °C 19.7 °C 1015.8 hPa ENE 5.6 km/h 5.6 km/h 74 % 0.0 mm
02:11 24.5 °C 19.6 °C 1015.8 hPa NNE 5.6 km/h 5.6 km/h 74 % 0.0 mm
02:16 24.5 °C 19.3 °C 1015.8 hPa ESE 4.2 km/h 4.2 km/h 73 % 0.0 mm
02:21 24.5 °C 19.6 °C 1015.8 hPa East 7.4 km/h 7.4 km/h 74 % 0.0 mm
02:26 24.5 °C 19.6 °C 1015.8 hPa ESE 3.7 km/h 3.7 km/h 74 % 0.0 mm
02:31 24.5 °C 19.3 °C 1014.8 hPa ENE 5.0 km/h 5.0 km/h 73 % 0.0 mm
02:36 24.5 °C 19.6 °C 1014.8 hPa East 7.4 km/h 7.4 km/h 74 % 0.0 mm
02:41 24.5 °C 19.6 °C 1014.8 hPa ENE 5.8 km/h 5.8 km/h 74 % 0.0 mm
02:46 24.5 °C 19.3 °C 1015.8 hPa ENE 5.6 km/h 5.6 km/h 73 % 0.0 mm
02:51 24.5 °C 19.3 °C 1015.8 hPa NE 3.7 km/h 3.7 km/h 73 % 0.0 mm
02:56 24.5 °C 19.6 °C 1015.8 hPa ENE 3.7 km/h 3.7 km/h 74 % 0.0 mm
03:01 24.5 °C 19.3 °C 1014.8 hPa ENE 4.7 km/h 4.7 km/h 73 % 0.0 mm
03:06 24.5 °C 19.3 °C 1014.8 hPa NE 2.3 km/h 3.2 km/h 73 % 0.0 mm
03:11 24.4 °C 19.2 °C 1014.8 hPa ESE 5.8 km/h 5.8 km/h 73 % 0.0 mm
03:16 24.4 °C 19.4 °C 1014.8 hPa ESE 3.7 km/h   74 % 0.0 mm
03:21 24.4 °C 19.2 °C 1014.8 hPa SSE 3.7 km/h 3.7 km/h 73 % 0.0 mm
03:26 24.4 °C 19.4 °C 1014.8 hPa WSW 3.7 km/h 3.7 km/h 74 % 0.0 mm
03:31 24.4 °C 19.4 °C 1014.8 hPa WSW 1.9 km/h 2.3 km/h 74 % 0.0 mm
03:36 24.4 °C 19.4 °C 1014.8 hPa SSE 2.6 km/h   74 % 0.0 mm
03:41 24.3 °C 19.4 °C 1014.8 hPa WSW 3.7 km/h 3.7 km/h 74 % 0.0 mm
03:46 24.1 °C 18.9 °C 1014.8 hPa WSW 3.7 km/h 3.7 km/h 73 % 0.0 mm
03:51 24.0 °C 18.7 °C 1014.8 hPa WSW 3.7 km/h 3.7 km/h 72 % 0.0 mm
03:56 24.0 °C 18.4 °C 1014.8 hPa WSW 2.3 km/h 2.3 km/h 71 % 0.0 mm
04:01 24.0 °C 18.4 °C 1014.8 hPa West 3.7 km/h 3.7 km/h 71 % 0.0 mm
04:06 24.1 °C 18.7 °C 1014.8 hPa WSW 1.9 km/h   72 % 0.0 mm
04:11 24.1 °C 18.5 °C 1014.8 hPa WSW 3.7 km/h 3.7 km/h 71 % 0.0 mm
04:16 24.1 °C 18.7 °C 1014.8 hPa West 1.9 km/h   72 % 0.0 mm
04:21 24.0 °C 18.8 °C 1014.8 hPa WSW 1.9 km/h   73 % 0.0 mm
04:26 24.0 °C 18.8 °C 1014.8 hPa Calm     73 % 0.0 mm
04:31 23.9 °C 19.0 °C 1014.8 hPa Calm     74 % 0.0 mm
04:36 23.8 °C 18.9 °C 1014.8 hPa Calm     74 % 0.0 mm
04:41 23.8 °C 18.7 °C 1014.8 hPa Calm     73 % 0.0 mm
04:42 23.8 °C 18.7 °C 1014.8 hPa Calm     73 % 0.0 mm
04:47 23.7 °C 18.8 °C 1014.8 hPa Calm     74 % 0.0 mm
04:52 23.7 °C 18.6 °C 1014.8 hPa SW 3.7 km/h   73 % 0.0 mm
04:57 23.6 °C 18.5 °C 1014.8 hPa South 3.7 km/h 3.7 km/h 73 % 0.0 mm
05:02 23.6 °C 18.3 °C 1014.8 hPa SW 3.7 km/h 3.7 km/h 72 % 0.0 mm
05:07 23.6 °C 18.1 °C 1014.8 hPa SSW 3.7 km/h 3.7 km/h 71 % 0.0 mm
05:12 23.6 °C 18.3 °C 1014.8 hPa East 1.9 km/h   72 % 0.0 mm
05:17 23.4 °C 17.8 °C 1014.8 hPa WSW 4.2 km/h 4.2 km/h 71 % 0.0 mm
05:20 23.3 °C 17.5 °C 1014.8 hPa WSW 3.7 km/h 3.7 km/h 70 % 0.0 mm
05:21 23.3 °C 17.5 °C 1014.8 hPa WSW 3.7 km/h 3.7 km/h 70 % 0.0 mm
05:23 23.3 °C 17.5 °C 1014.8 hPa WSW 3.7 km/h 3.7 km/h 70 % 0.0 mm
05:26 23.3 °C 17.7 °C 1014.8 hPa Calm     71 % 0.0 mm
05:31 23.3 °C 17.7 °C 1015.8 hPa WSW 1.9 km/h   71 % 0.0 mm
05:36 23.2 °C 17.7 °C 1015.8 hPa SW 1.9 km/h 1.9 km/h 71 % 0.0 mm
05:41 23.2 °C 17.7 °C 1015.8 hPa SW 2.3 km/h   71 % 0.0 mm
05:46 23.3 °C 17.5 °C 1014.8 hPa WSW 2.6 km/h 2.6 km/h 70 % 0.0 mm
05:51 23.3 °C 17.5 °C 1014.8 hPa WSW 3.7 km/h 3.7 km/h 70 % 0.0 mm
05:56 23.3 °C 17.7 °C 1014.8 hPa SW 1.9 km/h   71 % 0.0 mm
06:01 23.3 °C 17.5 °C 1015.8 hPa WSW 3.7 km/h 3.7 km/h 70 % 0.0 mm
06:06 23.3 °C 17.5 °C 1015.8 hPa West 3.9 km/h 3.9 km/h 70 % 0.0 mm
06:11 23.4 °C 17.8 °C 1015.8 hPa Calm     71 % 0.0 mm
06:16 23.4 °C 17.8 °C 1015.8 hPa Calm     71 % 0.0 mm
06:21 23.4 °C 18.1 °C 1015.8 hPa Calm     72 % 0.0 mm
06:26 23.4 °C 18.1 °C 1015.8 hPa Calm     72 % 0.0 mm
06:31 23.4 °C 18.1 °C 1015.8 hPa WNW 1.9 km/h   72 % 0.0 mm
06:36 23.5 °C 18.2 °C 1015.8 hPa NW 3.7 km/h 3.7 km/h 72 % 0.0 mm
06:41 23.5 °C 18.2 °C 1015.8 hPa WNW 3.7 km/h 3.7 km/h 72 % 0.0 mm
06:46 23.5 °C 18.4 °C 1015.8 hPa NW 1.9 km/h   73 % 0.0 mm
06:51 23.4 °C 18.3 °C 1015.8 hPa Calm     73 % 0.0 mm
06:56 23.4 °C 18.3 °C 1015.8 hPa Calm     73 % 0.0 mm
07:01 23.3 °C 18.2 °C 1015.8 hPa Calm     73 % 0.0 mm
07:06 23.2 °C 18.1 °C 1015.8 hPa SSE 3.7 km/h 3.7 km/h 73 % 0.0 mm
07:11 23.0 °C 18.1 °C 1015.8 hPa SSE 9.3 km/h 9.3 km/h 74 % 0.0 mm
07:16 22.8 °C 17.7 °C 1015.8 hPa South 3.7 km/h   73 % 0.0 mm
07:21 22.6 °C 17.5 °C 1015.8 hPa South 2.3 km/h 2.3 km/h 73 % 0.0 mm
07:26 22.6 °C 17.3 °C 1015.8 hPa WSW 3.7 km/h 3.7 km/h 72 % 0.0 mm
07:31 22.5 °C 17.2 °C 1015.8 hPa WSW 3.7 km/h 3.7 km/h 72 % 0.0 mm
07:36 22.5 °C 17.2 °C 1015.8 hPa West 3.9 km/h 3.9 km/h 72 % 0.0 mm
07:41 22.5 °C 17.2 °C 1015.8 hPa WSW 3.9 km/h 3.9 km/h 72 % 0.0 mm
07:46 22.6 °C 17.3 °C 1015.8 hPa West 3.9 km/h 3.9 km/h 72 % 0.0 mm
07:51 22.7 °C 17.4 °C 1015.8 hPa WSW 5.6 km/h 5.6 km/h 72 % 0.0 mm
07:56 22.8 °C 17.7 °C 1015.8 hPa WNW 4.7 km/h 4.7 km/h 73 % 0.0 mm
08:01 22.9 °C 17.8 °C 1015.8 hPa WNW 2.6 km/h 2.6 km/h 73 % 0.0 mm
08:06 23.0 °C 17.7 °C 1015.8 hPa West 7.4 km/h 7.4 km/h 72 % 0.0 mm
08:11 23.1 °C 18.0 °C 1015.8 hPa WSW 3.7 km/h 3.7 km/h 73 % 0.0 mm
08:16 23.2 °C 18.1 °C 1015.8 hPa WNW 5.8 km/h 5.8 km/h 73 % 0.0 mm
08:21 23.3 °C 18.2 °C 1015.8 hPa SW 3.7 km/h 3.7 km/h 73 % 0.0 mm
08:26 23.6 °C 18.5 °C 1015.8 hPa SSW 3.7 km/h 3.7 km/h 73 % 0.0 mm
08:31 23.7 °C 18.6 °C 1015.8 hPa SW 3.7 km/h 3.7 km/h 73 % 0.0 mm
08:36 23.8 °C 18.4 °C 1015.8 hPa West 3.7 km/h 3.7 km/h 72 % 0.0 mm
08:41 24.0 °C 18.4 °C 1015.8 hPa NNE 4.2 km/h   71 % 0.0 mm
08:46 23.8 °C 18.4 °C 1016.8 hPa NNW 6.9 km/h 6.9 km/h 72 % 0.0 mm
08:51 23.5 °C 17.9 °C 1016.8 hPa NW 7.4 km/h 7.4 km/h 71 % 0.0 mm
08:56 23.6 °C 17.8 °C 1016.8 hPa NE 7.4 km/h 7.4 km/h 70 % 0.0 mm
09:01 23.4 °C 17.6 °C 1016.8 hPa NNE 3.7 km/h 3.7 km/h 70 % 0.0 mm
09:06 23.2 °C 17.4 °C 1016.8 hPa NNW 6.1 km/h 6.1 km/h 70 % 0.0 mm
09:12 23.1 °C 17.1 °C 1016.8 hPa ENE 7.4 km/h 7.4 km/h 69 % 0.0 mm
09:17 23.1 °C 17.1 °C 1016.8 hPa ESE 5.6 km/h 5.6 km/h 69 % 0.0 mm
09:22 23.0 °C 17.0 °C 1016.8 hPa NE 5.0 km/h 5.0 km/h 69 % 0.0 mm
09:27 23.0 °C 17.0 °C 1016.8 hPa ENE 3.9 km/h 3.9 km/h 69 % 0.0 mm
09:32 22.9 °C 16.9 °C 1016.8 hPa NNE 2.3 km/h 2.3 km/h 69 % 0.0 mm
09:37 23.0 °C 17.0 °C 1016.8 hPa WNW 3.7 km/h 3.7 km/h 69 % 0.0 mm
09:42 23.0 °C 17.0 °C 1016.8 hPa NNW 3.7 km/h   69 % 0.0 mm
09:47 23.1 °C 17.1 °C 1016.8 hPa NNW 3.7 km/h 3.7 km/h 69 % 0.0 mm
09:52 23.1 °C 17.1 °C 1016.8 hPa NE 4.2 km/h 4.2 km/h 69 % 0.0 mm
09:57 23.2 °C 16.9 °C 1016.8 hPa North 5.8 km/h 5.8 km/h 68 % 0.0 mm
10:02 23.2 °C 16.9 °C 1016.8 hPa NNW 5.6 km/h 5.6 km/h 68 % 0.0 mm
10:07 23.2 °C 16.9 °C 1016.8 hPa WNW 3.7 km/h 3.7 km/h 68 % 0.0 mm
10:12 23.2 °C 16.9 °C 1016.8 hPa North 3.7 km/h 3.7 km/h 68 % 0.0 mm
10:17 22.9 °C 17.1 °C 1017.8 hPa WNW 3.7 km/h 3.7 km/h 70 % 0.0 mm
10:22 22.6 °C 17.1 °C 1017.8 hPa ENE 3.7 km/h 3.7 km/h 71 % 0.0 mm
10:27 22.4 °C 17.1 °C 1017.8 hPa ENE 3.7 km/h 3.7 km/h 72 % 0.0 mm
10:32 22.3 °C 17.2 °C 1017.8 hPa NNE 3.7 km/h   73 % 0.0 mm
10:37 22.3 °C 17.4 °C 1017.8 hPa NE 1.9 km/h   74 % 0.0 mm
10:42 22.3 °C 17.4 °C 1017.8 hPa NNE 3.7 km/h 3.7 km/h 74 % 0.0 mm
10:47 22.4 °C 17.6 °C 1017.8 hPa NNE 3.7 km/h 3.7 km/h 74 % 0.0 mm
10:52 22.5 °C 17.8 °C 1017.8 hPa NNE 4.2 km/h 4.2 km/h 75 % 0.0 mm
10:57 22.5 °C 17.6 °C 1017.8 hPa North 5.6 km/h 5.6 km/h 74 % 0.0 mm
11:02 22.8 °C 17.9 °C 1017.8 hPa ENE 5.6 km/h 5.6 km/h 74 % 0.0 mm
11:07 22.8 °C 17.7 °C 1017.8 hPa NE 4.7 km/h 4.7 km/h 73 % 0.0 mm
11:12 22.9 °C 17.8 °C 1017.8 hPa ENE 5.6 km/h 5.6 km/h 73 % 0.0 mm
11:17 22.9 °C 17.6 °C 1017.8 hPa NNE 5.6 km/h 5.6 km/h 72 % 0.0 mm
11:22 23.2 °C 17.9 °C 1017.8 hPa NNE 5.6 km/h 5.6 km/h 72 % 0.0 mm
11:27 23.3 °C 17.7 °C 1017.8 hPa ENE 7.4 km/h 7.4 km/h 71 % 0.0 mm
11:32 23.4 °C 17.6 °C 1017.8 hPa NE 7.4 km/h 7.4 km/h 70 % 0.0 mm
11:37 23.4 °C 17.6 °C 1017.8 hPa NNE 5.6 km/h 5.6 km/h 70 % 0.0 mm
11:42 23.5 °C 17.5 °C 1017.8 hPa WNW 1.9 km/h   69 % 0.0 mm
11:47 23.6 °C 18.1 °C 1017.8 hPa West 1.9 km/h   71 % 0.0 mm
11:52 23.5 °C 17.9 °C 1017.8 hPa ENE 3.7 km/h 3.7 km/h 71 % 0.0 mm
12:02 23.6 °C 17.6 °C 1017.8 hPa NNE 3.7 km/h 3.7 km/h 69 % 0.0 mm
12:07 23.7 °C 17.7 °C 1017.8 hPa East 1.9 km/h 1.9 km/h 69 % 0.0 mm
12:12 23.8 °C 17.8 °C 1017.8 hPa NE 3.2 km/h 3.2 km/h 69 % 0.0 mm
12:17 23.9 °C 17.9 °C 1017.8 hPa ENE 4.7 km/h 4.7 km/h 69 % 0.0 mm
12:22 23.9 °C 18.1 °C 1017.8 hPa ESE 3.7 km/h 3.7 km/h 70 % 0.0 mm
12:27 24.2 °C 18.2 °C 1017.8 hPa ESE 4.7 km/h 4.7 km/h 69 % 0.0 mm
12:32 24.7 °C 19.1 °C 1017.8 hPa East 6.4 km/h 6.4 km/h 71 % 0.0 mm
12:37 25.0 °C 18.7 °C 1017.8 hPa SE 3.7 km/h 3.7 km/h 68 % 0.0 mm
12:42 25.0 °C 18.7 °C 1016.8 hPa ESE 5.6 km/h 5.6 km/h 68 % 0.0 mm
12:47 25.0 °C 18.4 °C 1016.8 hPa ENE 7.4 km/h 7.4 km/h 67 % 0.0 mm
12:52 25.1 °C 18.6 °C 1016.8 hPa SE 7.4 km/h 7.4 km/h 67 % 0.0 mm
12:57 25.0 °C 18.4 °C 1016.8 hPa East 7.4 km/h 7.4 km/h 67 % 0.0 mm
13:02 25.2 °C 18.6 °C 1016.8 hPa SSW 7.4 km/h 7.4 km/h 67 % 0.0 mm
13:07 25.7 °C 19.1 °C 1016.8 hPa SSE 5.0 km/h 5.0 km/h 67 % 0.0 mm
13:12 25.3 °C 18.7 °C 1016.8 hPa SSE 9.3 km/h 9.3 km/h 67 % 0.0 mm
13:17 25.4 °C 18.8 °C 1016.8 hPa East 7.4 km/h 7.4 km/h 67 % 0.0 mm
13:22 25.4 °C 18.8 °C 1016.8 hPa ESE 9.3 km/h 9.3 km/h 67 % 0.0 mm
13:27 25.2 °C 18.9 °C 1016.8 hPa ENE 7.4 km/h 7.4 km/h 68 % 0.0 mm
13:32 25.3 °C 19.4 °C 1016.8 hPa East 11.1 km/h 11.1 km/h 70 % 0.0 mm
13:37 25.2 °C 19.6 °C 1016.8 hPa ESE 13.0 km/h 13.0 km/h 71 % 0.0 mm
13:42 25.2 °C 19.8 °C 1016.8 hPa ENE 7.4 km/h 7.4 km/h 72 % 0.0 mm
13:47 25.1 °C 19.7 °C 1016.8 hPa ESE 10.0 km/h 10.0 km/h 72 % 0.0 mm
13:52 25.1 °C 19.7 °C 1016.8 hPa ENE 7.4 km/h 7.4 km/h 72 % 0.0 mm
13:57 25.3 °C 19.9 °C 1016.8 hPa East 7.4 km/h 7.4 km/h 72 % 0.0 mm
14:02 25.4 °C 20.0 °C 1016.8 hPa ENE 5.6 km/h 5.6 km/h 72 % 0.0 mm
14:07 25.3 °C 19.9 °C 1016.8 hPa ESE 5.6 km/h 5.6 km/h 72 % 0.0 mm
14:12 25.6 °C 20.2 °C 1016.8 hPa East 3.7 km/h 4.2 km/h 72 % 0.0 mm
14:17 25.9 °C 20.2 °C 1016.8 hPa NNE 7.4 km/h 7.4 km/h 71 % 0.0 mm
14:22 25.9 °C 20.0 °C 1016.8 hPa ESE 5.6 km/h 5.6 km/h 70 % 0.0 mm
14:27 26.2 °C 20.1 °C 1017.8 hPa SW 7.4 km/h 7.4 km/h 69 % 0.0 mm
14:32 27.0 °C 20.1 °C 1017.8 hPa SSE 7.4 km/h 7.4 km/h 66 % 0.0 mm
14:37 27.4 °C 20.0 °C 1017.8 hPa ESE 9.3 km/h 9.3 km/h 64 % 0.0 mm
14:42 28.1 °C 20.1 °C 1016.8 hPa SSE 13.0 km/h 13.0 km/h 62 % 0.0 mm
14:47 28.3 °C 19.8 °C 1016.8 hPa South 12.2 km/h 12.2 km/h 60 % 0.0 mm
14:52 28.6 °C 20.1 °C 1016.8 hPa WSW 9.5 km/h 9.5 km/h 60 % 0.0 mm
14:57 28.6 °C 19.8 °C 1015.8 hPa South 11.1 km/h 11.1 km/h 59 % 0.0 mm
15:02 28.9 °C 19.5 °C 1015.8 hPa SSE 18.5 km/h 18.5 km/h 57 % 0.0 mm
15:07 29.1 °C 19.4 °C 1015.8 hPa SSW 13.0 km/h 13.0 km/h 56 % 0.0 mm
15:12 29.0 °C 19.1 °C 1015.8 hPa SSW 16.7 km/h 16.7 km/h 55 % 0.0 mm
15:17 29.7 °C 19.7 °C 1015.8 hPa SW 16.9 km/h 16.9 km/h 55 % 0.0 mm
15:22 29.9 °C 19.9 °C 1015.8 hPa SW 11.1 km/h 11.1 km/h 55 % 0.0 mm
15:27 29.5 °C 18.9 °C 1015.8 hPa WNW 14.8 km/h 14.8 km/h 53 % 0.0 mm
15:32 29.7 °C 19.1 °C 1015.8 hPa SW 13.0 km/h 13.0 km/h 53 % 0.0 mm
15:37 29.8 °C 18.9 °C 1015.8 hPa WSW 7.4 km/h 7.4 km/h 52 % 0.0 mm
15:42 30.0 °C 19.1 °C 1015.8 hPa SSW 13.0 km/h 13.0 km/h 52 % 0.0 mm
15:47 29.8 °C 18.9 °C 1015.8 hPa SSW 13.0 km/h 13.0 km/h 52 % 0.0 mm
15:52 29.5 °C 18.6 °C 1015.8 hPa SSW 9.3 km/h 9.3 km/h 52 % 0.0 mm
15:57 29.5 °C 18.6 °C 1015.8 hPa SW 10.8 km/h 10.8 km/h 52 % 0.0 mm
16:02 29.2 °C 18.3 °C 1015.8 hPa SW 9.3 km/h 9.3 km/h 52 % 0.0 mm
16:07 29.4 °C 18.2 °C 1015.8 hPa South 13.0 km/h 13.0 km/h 51 % 0.0 mm
16:12 29.5 °C 18.6 °C 1015.8 hPa South 7.4 km/h 7.4 km/h 52 % 0.0 mm
16:17 29.7 °C 18.5 °C 1015.8 hPa WSW 10.3 km/h 10.3 km/h 51 % 0.0 mm
16:22 29.5 °C 18.3 °C 1015.8 hPa South 18.5 km/h 18.5 km/h 51 % 0.0 mm
16:27 29.7 °C 18.5 °C 1015.8 hPa South 9.3 km/h 9.3 km/h 51 % 0.0 mm
16:32 29.4 °C 18.2 °C 1015.8 hPa SW 11.4 km/h 11.4 km/h 51 % 0.0 mm
16:37 29.3 °C 18.1 °C 1015.8 hPa SSW 8.7 km/h 8.7 km/h 51 % 0.0 mm
16:42 29.4 °C 18.2 °C 1015.8 hPa SSW 15.8 km/h 15.8 km/h 51 % 0.0 mm
16:47 28.9 °C 18.1 °C 1015.8 hPa SSW 11.1 km/h 11.1 km/h 52 % 0.0 mm
16:52 29.1 °C 17.9 °C 1015.8 hPa WNW 11.1 km/h 11.1 km/h 51 % 0.0 mm
16:57 28.9 °C 18.1 °C 1015.8 hPa West 9.3 km/h 9.3 km/h 52 % 0.0 mm
17:02 28.8 °C 17.9 °C 1015.8 hPa SW 20.4 km/h 20.4 km/h 52 % 0.0 mm
17:07 29.2 °C 18.3 °C 1015.8 hPa SW 7.9 km/h 7.9 km/h 52 % 0.0 mm
17:12 29.1 °C 18.2 °C 1015.8 hPa WSW 13.0 km/h 13.0 km/h 52 % 0.0 mm
17:17 29.1 °C 18.2 °C 1015.8 hPa SSW 9.3 km/h 9.3 km/h 52 % 0.0 mm
17:22 29.2 °C 18.3 °C 1015.8 hPa WSW 17.5 km/h 17.5 km/h 52 % 0.0 mm
17:27 28.7 °C 18.2 °C 1015.8 hPa South 7.4 km/h 7.4 km/h 53 % 0.0 mm
17:32 28.8 °C 18.3 °C 1015.8 hPa WSW 10.3 km/h 10.3 km/h 53 % 0.0 mm
17:37 28.1 °C 17.9 °C 1015.8 hPa SSW 11.1 km/h 11.1 km/h 54 % 0.0 mm
17:42 28.3 °C 18.1 °C 1015.8 hPa WSW 14.8 km/h 14.8 km/h 54 % 0.0 mm
17:47 28.0 °C 17.8 °C 1015.8 hPa SW 18.5 km/h 18.5 km/h 54 % 0.0 mm
17:52 28.1 °C 18.2 °C 1015.8 hPa South 9.7 km/h 9.7 km/h 55 % 0.0 mm
17:57 28.0 °C 18.1 °C 1015.8 hPa SSW 13.0 km/h 13.0 km/h 55 % 0.0 mm
18:02 28.1 °C 18.2 °C 1015.8 hPa SSE 5.6 km/h 5.6 km/h 55 % 0.0 mm
18:07 28.0 °C 18.1 °C 1015.8 hPa SSE 13.0 km/h 13.0 km/h 55 % 0.0 mm
18:12 27.9 °C 18.0 °C 1015.8 hPa SW 7.9 km/h 7.9 km/h 55 % 0.0 mm
18:17 27.8 °C 17.9 °C 1015.8 hPa SW 7.4 km/h 7.4 km/h 55 % 0.0 mm
18:22 27.7 °C 18.1 °C 1015.8 hPa SSW 11.1 km/h 11.1 km/h 56 % 0.0 mm
18:27 27.7 °C 18.1 °C 1014.8 hPa WSW 7.4 km/h 7.4 km/h 56 % 0.0 mm
18:32 27.5 °C 17.9 °C 1014.8 hPa SSE 13.0 km/h 13.0 km/h 56 % 0.0 mm
18:37 27.5 °C 17.9 °C 1014.8 hPa West 11.1 km/h 11.1 km/h 56 % 0.0 mm
18:42 27.5 °C 17.9 °C 1014.8 hPa WSW 9.3 km/h 9.3 km/h 56 % 0.0 mm
18:47 27.3 °C 17.8 °C 1014.8 hPa SW 11.1 km/h 11.1 km/h 56 % 0.0 mm
18:52 27.2 °C 17.9 °C 1014.8 hPa SSW 5.6 km/h 5.6 km/h 57 % 0.0 mm
18:57 27.1 °C 17.8 °C 1015.8 hPa South 8.7 km/h 8.7 km/h 57 % 0.0 mm
19:02 27.0 °C 17.8 °C 1015.8 hPa SSW 9.3 km/h 9.3 km/h 57 % 0.0 mm
19:07 26.8 °C 17.8 °C 1015.8 hPa SSE 7.4 km/h 7.4 km/h 58 % 0.0 mm
19:12 26.6 °C 17.9 °C 1015.8 hPa SW 13.0 km/h 13.0 km/h 59 % 0.0 mm
19:17 26.3 °C 17.7 °C 1015.8 hPa SSW 7.4 km/h 7.4 km/h 59 % 0.0 mm
19:22 26.1 °C 17.7 °C 1015.8 hPa SW 14.8 km/h 14.8 km/h 60 % 0.0 mm
19:27 26.1 °C 17.7 °C 1014.8 hPa SW 7.4 km/h 7.4 km/h 60 % 0.0 mm
19:32 25.9 °C 17.8 °C 1014.8 hPa SW 7.4 km/h 7.4 km/h 61 % 0.0 mm
19:37 25.6 °C 17.5 °C 1014.8 hPa WSW 13.0 km/h 13.0 km/h 61 % 0.0 mm
19:42 25.3 °C 17.5 °C 1015.8 hPa South 9.3 km/h 9.3 km/h 62 % 0.0 mm
19:47 25.3 °C 17.5 °C 1015.8 hPa SSE 8.7 km/h 8.7 km/h 62 % 0.0 mm
19:52 25.2 °C 17.4 °C 1015.8 hPa SSW 11.9 km/h 11.9 km/h 62 % 0.0 mm
19:57 25.0 °C 17.4 °C 1015.8 hPa WSW 11.1 km/h 11.1 km/h 63 % 0.0 mm
20:02 25.0 °C 17.4 °C 1015.8 hPa West 7.4 km/h 7.4 km/h 63 % 0.0 mm
20:03 24.9 °C 17.6 °C 1015.8 hPa SSW 9.3 km/h 9.3 km/h 64 % 0.0 mm
20:09 24.8 °C 17.5 °C 1015.8 hPa SW 9.3 km/h 9.3 km/h 64 % 0.0 mm
20:13 24.7 °C 17.7 °C 1015.8 hPa SE 7.4 km/h 7.4 km/h 65 % 0.0 mm
20:18 24.6 °C 17.6 °C 1015.8 hPa South 9.3 km/h 9.3 km/h 65 % 0.0 mm
20:23 24.5 °C 17.5 °C 1015.8 hPa SE 1.9 km/h 1.9 km/h 65 % 0.0 mm
20:28 24.5 °C 17.5 °C 1016.8 hPa SW 9.5 km/h 9.5 km/h 65 % 0.0 mm
20:33 24.4 °C 17.6 °C 1016.8 hPa WSW 3.9 km/h 3.9 km/h 66 % 0.0 mm
20:38 24.3 °C 17.6 °C 1016.8 hPa SW 9.3 km/h 9.3 km/h 66 % 0.0 mm
20:43 24.3 °C 17.6 °C 1017.8 hPa SW 11.1 km/h 11.1 km/h 66 % 0.0 mm
20:48 24.2 °C 17.7 °C 1017.8 hPa SW 7.4 km/h 7.4 km/h 67 % 0.0 mm
20:53 24.1 °C 17.3 °C 1017.8 hPa South 7.4 km/h 7.4 km/h 66 % 0.0 mm
20:58 24.2 °C 17.7 °C 1017.8 hPa SW 3.7 km/h   67 % 0.0 mm
21:03 24.2 °C 17.7 °C 1017.8 hPa SW 3.7 km/h 3.7 km/h 67 % 0.0 mm
21:08 24.2 °C 17.7 °C 1017.8 hPa SW 5.0 km/h 5.0 km/h 67 % 0.0 mm
21:13 24.1 °C 17.6 °C 1017.8 hPa SW 7.4 km/h 7.4 km/h 67 % 0.0 mm
21:18 24.0 °C 17.5 °C 1017.8 hPa SW 5.3 km/h 5.3 km/h 67 % 0.0 mm
21:23 24.0 °C 17.5 °C 1017.8 hPa South 5.6 km/h 5.6 km/h 67 % 0.0 mm
21:28 23.9 °C 17.6 °C 1017.8 hPa SSW 3.9 km/h 3.9 km/h 68 % 0.0 mm
21:33 23.9 °C 17.6 °C 1017.8 hPa SW 7.4 km/h 7.4 km/h 68 % 0.0 mm
21:38 23.8 °C 17.8 °C 1017.8 hPa SW 1.4 km/h 1.4 km/h 69 % 0.0 mm
21:43 23.8 °C 17.8 °C 1016.8 hPa WSW 5.0 km/h 5.0 km/h 69 % 0.0 mm
21:48 23.8 °C 17.8 °C 1016.8 hPa SW 7.4 km/h 7.4 km/h 69 % 0.0 mm
21:53 23.7 °C 17.7 °C 1016.8 hPa SW 3.7 km/h 3.7 km/h 69 % 0.0 mm
21:58 23.7 °C 17.7 °C 1017.8 hPa SW 3.7 km/h 3.7 km/h 69 % 0.0 mm
22:03 23.7 °C 17.7 °C 1017.8 hPa WSW 7.4 km/h 7.4 km/h 69 % 0.0 mm
22:08 23.7 °C 17.7 °C 1017.8 hPa SW 5.6 km/h 5.6 km/h 69 % 0.0 mm
22:13 23.6 °C 17.6 °C 1017.8 hPa WSW 5.6 km/h 5.6 km/h 69 % 0.0 mm
22:18 23.6 °C 17.6 °C 1017.8 hPa SW 5.0 km/h 5.0 km/h 69 % 0.0 mm
22:23 23.6 °C 17.8 °C 1017.8 hPa SW 4.2 km/h 4.2 km/h 70 % 0.0 mm
22:28 23.6 °C 17.8 °C 1017.8 hPa SW 3.9 km/h 3.9 km/h 70 % 0.0 mm
22:33 23.5 °C 17.7 °C 1017.8 hPa SW 3.7 km/h 3.7 km/h 70 % 0.0 mm
22:39 23.5 °C 17.7 °C 1017.8 hPa WSW 3.7 km/h 3.7 km/h 70 % 0.0 mm
22:43 23.4 °C 17.6 °C 1018.8 hPa WSW 3.7 km/h 3.7 km/h 70 % 0.0 mm
22:48 23.4 °C 17.6 °C 1018.8 hPa WSW 3.7 km/h 3.7 km/h 70 % 0.0 mm
22:53 23.4 °C 17.8 °C 1018.8 hPa SW 3.7 km/h 3.7 km/h 71 % 0.0 mm
22:58 23.4 °C 17.8 °C 1017.8 hPa SW 3.7 km/h 3.7 km/h 71 % 0.0 mm
23:03 23.3 °C 17.7 °C 1017.8 hPa SW 3.7 km/h 3.7 km/h 71 % 0.0 mm
23:08 23.3 °C 17.7 °C 1017.8 hPa WSW 3.7 km/h 3.7 km/h 71 % 0.0 mm
23:13 23.3 °C 17.7 °C 1018.8 hPa SW 3.5 km/h   71 % 0.0 mm
23:18 23.2 °C 17.7 °C 1018.8 hPa SW 3.7 km/h 3.7 km/h 71 % 0.0 mm
23:23 23.2 °C 17.7 °C 1018.8 hPa SW 3.9 km/h 4.2 km/h 71 % 0.0 mm
23:28 23.1 °C 17.6 °C 1017.8 hPa WSW 3.9 km/h 3.9 km/h 71 % 0.0 mm
23:33 23.0 °C 17.7 °C 1017.8 hPa WSW 3.7 km/h 3.7 km/h 72 % 0.0 mm
23:38 23.0 °C 17.7 °C 1017.8 hPa SW 3.7 km/h 3.7 km/h 72 % 0.0 mm
23:43 22.9 °C 17.6 °C 1017.8 hPa WSW 3.7 km/h 3.7 km/h 72 % 0.0 mm
23:48 22.9 °C 17.6 °C 1017.8 hPa WSW 3.7 km/h 3.7 km/h 72 % 0.0 mm
23:53 22.9 °C 17.6 °C 1017.8 hPa West 3.7 km/h 3.7 km/h 72 % 0.0 mm
23:58 22.9 °C 17.8 °C 1018.8 hPa SW 3.7 km/h 3.7 km/h 73 % 0.0 mm
Meteo Sesrovires
Elogis d' Weather Underground - 4 mb

Guio original per  Jim McMurry - jmcmurry@mwt.net Adaptat per a la plantilla per  Wim van der Kuil - Leuven-Template.eu

Trobareu la nostra informacio del temps tambe a:

Weather Underground

AWEKAS